Etusivu
METAR-TAF:

METAR-TAF

Lentoasemat :

Fremont Municipal Airport

Fremont, Nebraska, Yhdysvallat

Leveyspiiri: 41-27N, Pituuspiiri: 096-31W, korkeus merenpinnasta: 379 m

Tämänhetkinen sää

Tämä raportti tehtiin 22 minuuttia sitten, kello 08.55 UTC
tyyntä
Lämpötila 22°C
Kosteus 100%
Ilmanpaine 1017 hPa
Näkyvyys: 8.0 km
Hajanaisia pilviä 5000 ft:n korkeudessa
utua

METAR: KFET 030855Z AUTO 00000KT 5SM BR SCT050 22/22 A3004 RMK AO2 T02220222

Aika: 04:17 (09:17 UTC)


TAF: puuttuu

Säähavainnot ja -ennusteet yli 4000 lentoasemalta (METAR- ja TAF-raportit).

Käytössä olevat sääasemat on merkitty karttaan keltaisilla ja punaisilla pisteillä.

Aseta hiiri pisteen päälle nähdäksesi sääaseman nimen.

Klikkaa sitten nähdäksesi säähavainnot ja -ennusteet.

Kartan vaihtaminen: klikkaa mustalla rastilla varustettuja vihreitä pisteitä, niin voit zoomata sisään; viivalla varustettua vihreää pistettä, niin voit zoomata ulos tai vihreitä nuolia, niin pääset viereisille kartoille.


METAR-TAF: